createdAt,value
2024-01-15T00:00:41.771Z,0.99
2024-01-15T00:03:09.302Z,1.26
2024-01-15T00:05:36.955Z,1.23
2024-01-15T00:08:04.262Z,1.10
2024-01-15T00:10:31.386Z,1.12
2024-01-15T00:12:58.566Z,1.16
2024-01-15T00:15:26.412Z,1.17
2024-01-15T00:17:53.669Z,1.34
2024-01-15T00:20:20.831Z,1.36
2024-01-15T00:22:47.968Z,1.32
2024-01-15T00:25:15.317Z,1.48
2024-01-15T00:27:42.503Z,1.14
2024-01-15T00:30:10.887Z,1.44
2024-01-15T00:32:38.248Z,1.59
2024-01-15T00:35:06.209Z,1.68
2024-01-15T00:37:33.434Z,1.71
2024-01-15T00:40:00.771Z,1.90
2024-01-15T00:42:28.107Z,1.87
2024-01-15T00:44:55.662Z,1.59
2024-01-15T00:47:22.977Z,1.71
2024-01-15T00:49:50.291Z,1.80
2024-01-15T00:52:17.485Z,1.68
2024-01-15T00:54:44.580Z,1.65
2024-01-15T00:57:11.744Z,1.76
2024-01-15T00:59:39.151Z,1.54
2024-01-15T01:02:06.362Z,1.75
2024-01-15T01:04:33.513Z,1.77
2024-01-15T01:07:00.828Z,1.71
2024-01-15T01:09:30.504Z,1.32
2024-01-15T01:11:58.021Z,1.18
2024-01-15T01:14:25.160Z,1.43
2024-01-15T01:16:52.374Z,1.43
2024-01-15T01:19:19.812Z,1.37
2024-01-15T01:21:47.233Z,1.38
2024-01-15T01:24:14.419Z,1.30
2024-01-15T01:26:41.651Z,1.44
2024-01-15T01:29:08.847Z,1.41
2024-01-15T01:31:36.413Z,1.28
2024-01-15T01:34:03.761Z,1.34
2024-01-15T01:36:33.084Z,0.99
2024-01-15T01:39:00.390Z,0.90
2024-01-15T01:41:27.572Z,1.16
2024-01-15T01:43:54.823Z,0.99
2024-01-15T01:46:22.145Z,1.41
2024-01-15T01:48:49.850Z,1.69
2024-01-15T01:51:17.301Z,2.15
2024-01-15T01:53:46.719Z,2.04
2024-01-15T01:56:14.843Z,1.77
2024-01-15T01:58:42.228Z,1.02
2024-01-15T02:01:09.983Z,1.12
2024-01-15T02:03:37.592Z,0.77
2024-01-15T02:06:05.399Z,0.80
2024-01-15T02:08:33.020Z,0.66
2024-01-15T02:11:00.171Z,0.61
2024-01-15T02:13:27.447Z,0.85
2024-01-15T02:15:54.674Z,1.13
2024-01-15T02:18:22.270Z,1.14
2024-01-15T02:20:49.606Z,1.22
2024-01-15T02:23:17.517Z,1.25
2024-01-15T02:25:46.868Z,0.94
2024-01-15T02:28:19.106Z,-0.29
2024-01-15T02:30:47.091Z,0.04
2024-01-15T02:33:14.868Z,-0.39
2024-01-15T02:35:42.379Z,0.11
2024-01-15T02:38:09.681Z,0.26
2024-01-15T02:40:37.959Z,0.37
2024-01-15T02:43:05.598Z,0.43
2024-01-15T02:45:33.016Z,0.83
2024-01-15T02:48:00.250Z,0.82
2024-01-15T02:50:27.584Z,0.33
2024-01-15T02:52:54.892Z,0.11
2024-01-15T02:55:22.242Z,0.38
2024-01-15T02:57:49.458Z,0.62
2024-01-15T03:00:16.938Z,0.68
2024-01-15T03:02:48.520Z,0.25
2024-01-15T03:05:16.538Z,-0.02
2024-01-15T03:07:44.824Z,0.09
2024-01-15T03:10:12.066Z,0.08
2024-01-15T03:12:39.253Z,0.28
2024-01-15T03:15:06.827Z,0.51
2024-01-15T03:17:34.293Z,0.88
2024-01-15T03:20:03.959Z,0.86
2024-01-15T03:22:31.244Z,0.52
2024-01-15T03:24:58.381Z,0.35
2024-01-15T03:27:25.571Z,0.53
2024-01-15T03:29:52.934Z,0.80
2024-01-15T03:32:20.918Z,0.69
2024-01-15T03:34:49.038Z,0.82
2024-01-15T03:37:16.439Z,0.87
2024-01-15T03:39:43.653Z,0.93
2024-01-15T03:42:10.962Z,0.51
2024-01-15T03:44:38.055Z,0.52
2024-01-15T03:47:05.660Z,0.21
2024-01-15T03:49:32.943Z,0.12
2024-01-15T03:52:00.082Z,0.33
2024-01-15T03:54:28.274Z,0.25
2024-01-15T03:56:55.456Z,0.15
2024-01-15T03:59:22.761Z,0.03
2024-01-15T04:01:53.043Z,0.01
2024-01-15T04:04:20.543Z,-0.21
2024-01-15T04:06:47.935Z,-0.47
2024-01-15T04:09:15.507Z,-0.36
2024-01-15T04:11:42.825Z,-0.30
2024-01-15T04:14:09.911Z,-0.34
2024-01-15T04:16:38.874Z,-0.29
2024-01-15T04:19:06.192Z,-0.10
2024-01-15T04:21:33.680Z,-0.19
2024-01-15T04:24:01.052Z,-0.28
2024-01-15T04:26:28.191Z,0.13
2024-01-15T04:28:55.351Z,0.30
2024-01-15T04:31:28.490Z,0.20
2024-01-15T04:33:56.113Z,0.18
2024-01-15T04:36:23.633Z,0.30
2024-01-15T04:38:50.840Z,0.39
2024-01-15T04:41:18.381Z,0.34
2024-01-15T04:43:45.818Z,0.44
2024-01-15T04:46:13.067Z,0.26
2024-01-15T04:48:40.325Z,0.42
2024-01-15T04:51:10.236Z,0.47
2024-01-15T04:53:37.587Z,0.62
2024-01-15T04:56:05.009Z,0.60
2024-01-15T04:58:32.151Z,0.72
2024-01-15T05:00:59.355Z,0.52
2024-01-15T05:03:26.645Z,0.83
2024-01-15T05:05:54.007Z,0.95
2024-01-15T05:08:21.227Z,0.96
2024-01-15T05:10:49.168Z,0.72
2024-01-15T05:13:16.497Z,0.68
2024-01-15T05:15:44.230Z,0.68
2024-01-15T05:18:11.780Z,0.74
2024-01-15T05:20:39.046Z,0.94
2024-01-15T05:23:06.201Z,1.10
2024-01-15T05:25:33.468Z,1.22
2024-01-15T05:28:01.144Z,1.39
2024-01-15T05:30:28.437Z,1.16
2024-01-15T05:32:55.784Z,1.32
2024-01-15T05:35:23.048Z,1.38
2024-01-15T05:37:50.305Z,1.77
2024-01-15T05:40:17.454Z,2.21
2024-01-15T05:42:44.609Z,2.57
2024-01-15T05:45:11.812Z,3.06
2024-01-15T05:47:39.145Z,3.54
2024-01-15T05:50:08.035Z,4.20
2024-01-15T05:52:35.461Z,4.49
2024-01-15T05:55:02.828Z,5.36
2024-01-15T05:57:30.059Z,5.82
2024-01-15T05:59:57.320Z,6.00
2024-01-15T06:02:24.500Z,6.11
2024-01-15T06:04:51.668Z,5.35
2024-01-15T06:07:18.909Z,4.81
2024-01-15T06:09:46.336Z,4.92
2024-01-15T06:12:13.772Z,6.44
2024-01-15T06:14:42.528Z,6.73
2024-01-15T06:17:09.842Z,7.62
2024-01-15T06:19:37.057Z,8.87
2024-01-15T06:22:04.495Z,8.59
2024-01-15T06:24:31.714Z,9.79
2024-01-15T06:26:58.849Z,10.93
2024-01-15T06:29:27.685Z,11.69
2024-01-15T06:31:55.406Z,12.95
2024-01-15T06:34:22.900Z,13.19
2024-01-15T06:36:50.244Z,13.06
2024-01-15T06:39:17.437Z,12.98
2024-01-15T06:41:45.010Z,12.19
2024-01-15T06:44:12.935Z,12.72
2024-01-15T06:46:46.493Z,13.52
2024-01-15T06:49:14.076Z,14.01
2024-01-15T06:51:41.891Z,13.69
2024-01-15T06:54:09.900Z,12.89
2024-01-15T06:56:37.067Z,13.03
2024-01-15T06:59:04.172Z,14.69
2024-01-15T07:01:31.521Z,15.62
2024-01-15T07:03:58.897Z,15.72
2024-01-15T07:06:26.259Z,16.25
2024-01-15T07:08:53.659Z,15.69
2024-01-15T07:11:21.013Z,14.65
2024-01-15T07:13:48.236Z,13.56
2024-01-15T07:16:29.671Z,13.94
2024-01-15T07:19:02.542Z,12.77
2024-01-15T07:21:29.785Z,13.56
2024-01-15T07:23:56.969Z,12.25
2024-01-15T07:26:24.174Z,10.97
2024-01-15T07:28:51.403Z,11.12
2024-01-15T07:31:19.147Z,14.31
2024-01-15T07:33:47.710Z,15.31
2024-01-15T07:36:15.074Z,14.33
2024-01-15T07:38:42.205Z,12.50
2024-01-15T07:41:09.446Z,13.26
2024-01-15T07:43:36.623Z,12.07
2024-01-15T07:46:04.094Z,13.93
2024-01-15T07:48:31.703Z,14.02
2024-01-15T07:50:58.909Z,13.77
2024-01-15T07:53:26.111Z,13.90
2024-01-15T07:55:53.338Z,13.34
2024-01-15T07:58:20.461Z,12.34
2024-01-15T08:00:47.757Z,12.56
2024-01-15T08:03:16.671Z,12.70
2024-01-15T08:05:44.031Z,12.94
2024-01-15T08:08:11.207Z,12.76
2024-01-15T08:10:38.407Z,12.28
2024-01-15T08:13:05.502Z,11.90
2024-01-15T08:15:32.784Z,11.55
2024-01-15T08:18:00.722Z,10.80
2024-01-15T08:20:28.155Z,12.95
2024-01-15T08:22:55.357Z,13.60
2024-01-15T08:25:22.531Z,12.83
2024-01-15T08:27:50.113Z,12.47
2024-01-15T08:30:17.667Z,14.70
2024-01-15T08:32:44.950Z,15.57
2024-01-15T08:35:12.862Z,15.05
2024-01-15T08:37:40.481Z,14.32
2024-01-15T08:40:08.334Z,15.13
2024-01-15T08:42:35.627Z,16.49
2024-01-15T08:45:03.034Z,17.70
2024-01-15T08:47:30.288Z,18.82
2024-01-15T08:49:57.520Z,19.05
2024-01-15T08:52:24.697Z,18.98
2024-01-15T08:54:52.240Z,20.25
2024-01-15T08:57:19.530Z,18.89
2024-01-15T08:59:46.626Z,18.47
2024-01-15T09:02:14.000Z,18.51
2024-01-15T09:04:42.335Z,18.68
2024-01-15T09:07:09.769Z,18.65
2024-01-15T09:09:37.896Z,17.60
2024-01-15T09:12:05.400Z,16.90
2024-01-15T09:14:36.786Z,17.83
2024-01-15T09:17:06.589Z,19.36
2024-01-15T09:19:34.146Z,19.90
2024-01-15T09:22:01.505Z,20.85
2024-01-15T09:24:29.604Z,20.81
2024-01-15T09:26:58.362Z,20.64
2024-01-15T09:29:25.668Z,19.39
2024-01-15T09:31:53.618Z,20.59
2024-01-15T09:34:21.267Z,21.03
2024-01-15T09:36:50.300Z,19.62
2024-01-15T09:39:17.925Z,20.00
2024-01-15T09:41:45.339Z,20.54
2024-01-15T09:44:13.549Z,20.62
2024-01-15T09:46:41.358Z,22.08
2024-01-15T09:49:08.726Z,22.97
2024-01-15T09:51:37.802Z,22.89
2024-01-15T09:54:05.415Z,23.29
2024-01-15T09:56:32.910Z,22.65
2024-01-15T09:59:01.242Z,22.88
2024-01-15T10:01:29.656Z,22.03
2024-01-15T10:03:57.104Z,22.73
2024-01-15T10:06:24.760Z,21.85
2024-01-15T10:08:52.862Z,22.82
2024-01-15T10:11:21.051Z,23.05
2024-01-15T10:13:53.724Z,23.62
2024-01-15T10:16:26.480Z,23.39
2024-01-15T10:18:54.850Z,23.39
2024-01-15T10:21:23.198Z,23.20
2024-01-15T10:23:51.693Z,23.73
2024-01-15T10:26:19.922Z,22.63
2024-01-15T10:28:54.224Z,21.57
2024-01-15T10:31:26.192Z,19.97
2024-01-15T10:33:55.522Z,18.88
2024-01-15T10:36:24.324Z,18.72
2024-01-15T10:38:51.789Z,17.17
2024-01-15T10:41:18.921Z,15.73
2024-01-15T10:43:46.337Z,15.86
2024-01-15T10:46:13.980Z,15.95
2024-01-15T10:48:41.322Z,15.50
2024-01-15T10:51:12.131Z,15.34
2024-01-15T10:53:43.241Z,14.77
2024-01-15T10:56:11.516Z,15.18
2024-01-15T10:58:40.888Z,16.20
2024-01-15T11:01:08.494Z,16.42
2024-01-15T11:03:35.953Z,17.37
2024-01-15T11:06:04.792Z,17.54
2024-01-15T11:08:32.827Z,17.85
2024-01-15T11:11:00.121Z,16.93
2024-01-15T11:13:33.184Z,16.65
2024-01-15T11:16:05.747Z,16.08
2024-01-15T11:18:41.525Z,14.81
2024-01-15T11:21:17.759Z,15.06
2024-01-15T11:23:54.021Z,14.75
2024-01-15T11:26:35.342Z,15.55
2024-01-15T11:29:04.898Z,15.43
2024-01-15T11:31:52.281Z,15.85
2024-01-15T11:34:20.426Z,14.98
2024-01-15T11:36:47.637Z,14.27
2024-01-15T11:39:33.747Z,14.40
2024-01-15T11:42:05.223Z,13.42
2024-01-15T11:44:32.648Z,13.22
2024-01-15T11:47:05.174Z,13.54
2024-01-15T11:49:50.726Z,13.35
2024-01-15T11:52:24.932Z,14.12
2024-01-15T11:55:17.903Z,14.27
2024-01-15T11:57:51.175Z,14.12
2024-01-15T12:00:19.315Z,13.92
2024-01-15T12:02:47.957Z,13.12
2024-01-15T12:05:17.928Z,12.98
2024-01-15T12:07:47.145Z,12.64
2024-01-15T12:10:18.545Z,12.68
2024-01-15T12:13:02.216Z,13.05
2024-01-15T12:15:31.187Z,13.22
2024-01-15T12:18:00.193Z,13.21
2024-01-15T12:20:36.983Z,12.59
2024-01-15T12:23:08.965Z,12.40
2024-01-15T12:25:37.094Z,12.55
2024-01-15T12:28:04.699Z,12.20
2024-01-15T12:30:35.730Z,12.22
2024-01-15T12:33:07.912Z,12.33
2024-01-15T12:35:35.862Z,12.55
2024-01-15T12:38:06.556Z,12.61
2024-01-15T12:40:36.930Z,12.67
2024-01-15T12:43:07.070Z,12.61
2024-01-15T12:45:34.477Z,12.51
2024-01-15T12:48:02.238Z,12.61
2024-01-15T12:50:29.460Z,11.92
2024-01-15T12:52:56.823Z,11.51
2024-01-15T12:55:23.987Z,11.69
2024-01-15T12:57:54.036Z,11.59
2024-01-15T13:00:22.004Z,11.61
2024-01-15T13:02:51.084Z,12.09
2024-01-15T13:05:19.306Z,11.84
2024-01-15T13:07:46.709Z,11.97
2024-01-15T13:10:14.085Z,11.65
2024-01-15T13:12:42.762Z,12.54
2024-01-15T13:15:14.913Z,13.18
2024-01-15T13:17:44.493Z,14.50
2024-01-15T13:20:14.053Z,15.25
2024-01-15T13:22:45.443Z,14.84
2024-01-15T13:25:13.144Z,14.56
2024-01-15T13:27:41.544Z,14.16
2024-01-15T13:30:10.077Z,13.88
2024-01-15T13:32:37.577Z,13.73
2024-01-15T13:35:08.232Z,12.93
2024-01-15T13:37:35.952Z,13.36
2024-01-15T13:40:04.934Z,14.07
2024-01-15T13:42:32.288Z,15.81
2024-01-15T13:44:59.707Z,17.20
2024-01-15T13:47:26.895Z,17.71
2024-01-15T13:49:54.111Z,18.05
2024-01-15T13:52:21.253Z,18.10
2024-01-15T13:54:50.570Z,18.01
2024-01-15T13:57:20.887Z,18.19
2024-01-15T13:59:48.927Z,18.27
2024-01-15T14:02:19.750Z,17.99
2024-01-15T14:04:50.163Z,17.86
2024-01-15T14:07:18.040Z,18.40
2024-01-15T14:09:45.413Z,17.63
2024-01-15T14:12:13.426Z,18.53
2024-01-15T14:14:41.607Z,18.57
2024-01-15T14:17:08.967Z,18.56
2024-01-15T14:19:37.021Z,18.07
2024-01-15T14:22:05.021Z,17.61
2024-01-15T14:24:32.292Z,16.52
2024-01-15T14:26:59.929Z,15.12
2024-01-15T14:29:28.255Z,14.80
2024-01-15T14:31:55.667Z,14.24
2024-01-15T14:34:25.497Z,13.79
2024-01-15T14:36:56.482Z,13.52
2024-01-15T14:42:21.500Z,12.03
2024-01-15T14:44:48.623Z,10.91
2024-01-15T14:47:15.706Z,10.34
2024-01-15T14:49:42.938Z,10.26
2024-01-15T14:52:10.174Z,9.75
2024-01-15T14:54:37.369Z,9.81
2024-01-15T14:57:04.856Z,9.64
2024-01-15T14:59:32.081Z,9.45
2024-01-15T15:01:59.281Z,9.07
2024-01-15T15:04:29.885Z,9.10
2024-01-15T15:06:58.303Z,9.07
2024-01-15T15:09:25.730Z,8.98
2024-01-15T15:11:53.358Z,9.11
2024-01-15T15:14:20.508Z,9.21
2024-01-15T15:16:50.509Z,9.01
2024-01-15T15:19:19.085Z,8.93
2024-01-15T15:21:46.478Z,8.87
2024-01-15T15:24:14.004Z,8.69
2024-01-15T15:26:41.287Z,8.91
2024-01-15T15:29:09.221Z,9.09
2024-01-15T15:31:36.528Z,9.22
2024-01-15T15:34:04.158Z,9.08
2024-01-15T15:36:32.163Z,8.99
2024-01-15T15:38:59.899Z,9.53
2024-01-15T15:41:30.096Z,9.69
2024-01-15T15:43:57.261Z,9.74
2024-01-15T15:46:24.499Z,9.83
2024-01-15T15:48:51.935Z,9.80
2024-01-15T15:51:19.260Z,9.53
2024-01-15T15:53:46.455Z,9.78
2024-01-15T15:56:13.634Z,9.98
2024-01-15T15:58:41.361Z,10.03
2024-01-15T16:01:08.598Z,9.96
2024-01-15T16:03:35.831Z,9.57
2024-01-15T16:06:03.158Z,9.37
2024-01-15T16:08:30.343Z,9.71
2024-01-15T16:10:57.516Z,9.94
2024-01-15T16:13:24.739Z,9.86
2024-01-15T16:15:51.907Z,9.96
2024-01-15T16:23:21.584Z,9.34
2024-01-15T16:23:36.406Z,8.89
2024-01-15T16:24:21.699Z,8.22
2024-01-15T16:26:55.949Z,7.70
2024-01-15T16:29:24.204Z,8.03
2024-01-15T16:31:51.314Z,7.99
2024-01-15T16:34:18.493Z,7.67
2024-01-15T16:36:45.716Z,7.54
2024-01-15T16:39:12.948Z,8.04
2024-01-15T16:41:40.583Z,7.62
2024-01-15T16:44:07.876Z,7.62
2024-01-15T16:46:35.054Z,7.47
2024-01-15T16:49:03.426Z,7.48
2024-01-15T16:51:30.795Z,7.54
2024-01-15T16:53:58.697Z,7.64
2024-01-15T16:56:26.008Z,7.80
2024-01-15T16:58:54.368Z,7.90
2024-01-15T17:01:22.288Z,7.69
2024-01-15T17:03:49.444Z,7.71
2024-01-15T17:06:18.340Z,7.73
2024-01-15T17:08:45.486Z,7.38
2024-01-15T17:11:12.720Z,7.46
2024-01-15T17:13:41.045Z,7.82
2024-01-15T17:16:08.409Z,7.71
2024-01-15T17:18:35.634Z,7.64
2024-01-15T17:21:02.826Z,7.69
2024-01-15T17:23:29.992Z,7.66
2024-01-15T17:25:57.338Z,7.65
2024-01-15T17:28:25.635Z,7.79
2024-01-15T17:30:52.909Z,7.97
2024-01-15T17:33:20.876Z,7.94
2024-01-15T17:35:57.530Z,7.99
2024-01-15T17:38:25.794Z,8.04
2024-01-15T17:40:53.082Z,8.24
2024-01-15T17:43:21.554Z,8.23
2024-01-15T17:45:49.865Z,8.59
2024-01-15T17:48:17.332Z,8.45
2024-01-15T17:50:44.912Z,8.16
2024-01-15T17:53:12.585Z,7.69
2024-01-15T17:55:39.774Z,7.73
2024-01-15T17:58:07.278Z,7.61
2024-01-15T18:00:34.806Z,7.94
2024-01-15T18:03:02.168Z,7.87
2024-01-15T18:05:29.523Z,7.39
2024-01-15T18:07:56.957Z,7.58
2024-01-15T18:10:24.164Z,7.62
2024-01-15T18:12:51.427Z,7.47
2024-01-15T18:15:18.820Z,7.76
2024-01-15T18:17:46.308Z,7.97
2024-01-15T18:20:15.046Z,7.93
2024-01-15T18:22:42.329Z,8.02
2024-01-15T18:25:10.441Z,7.87
2024-01-15T18:27:37.685Z,7.91
2024-01-15T18:30:05.187Z,7.87
2024-01-15T18:32:32.503Z,8.08
2024-01-15T18:34:59.892Z,7.86
2024-01-15T18:37:29.024Z,8.08
2024-01-15T18:39:56.259Z,7.88
2024-01-15T18:42:23.753Z,7.76
2024-01-15T18:44:51.317Z,7.96
2024-01-15T18:47:18.829Z,8.10
2024-01-15T18:49:48.535Z,7.93
2024-01-15T18:52:17.715Z,8.00
2024-01-15T18:54:44.977Z,8.26
2024-01-15T18:57:12.236Z,8.19
2024-01-15T18:59:41.412Z,8.10
2024-01-15T19:02:08.712Z,8.42
2024-01-15T19:04:36.178Z,8.12
2024-01-15T19:07:05.933Z,8.27
2024-01-15T19:09:33.285Z,8.72
2024-01-15T19:12:00.513Z,8.83
2024-01-15T19:14:27.985Z,8.86
2024-01-15T19:16:55.384Z,8.88
2024-01-15T19:19:22.593Z,8.62
2024-01-15T19:21:51.284Z,8.76
2024-01-15T19:24:19.738Z,8.93
2024-01-15T19:26:46.945Z,8.66
2024-01-15T19:29:14.372Z,8.80
2024-01-15T19:31:42.124Z,8.49
2024-01-15T19:34:09.838Z,8.04
2024-01-15T19:36:37.072Z,8.22
2024-01-15T19:39:04.368Z,8.14
2024-01-15T19:41:31.664Z,7.91
2024-01-15T19:43:58.920Z,8.01
2024-01-15T19:46:26.576Z,8.39
2024-01-15T19:48:54.838Z,8.65
2024-01-15T19:51:22.136Z,8.72
2024-01-15T19:53:49.352Z,8.77
2024-01-15T19:56:18.945Z,8.78
2024-01-15T19:58:46.294Z,8.83
2024-01-15T20:01:13.642Z,9.12
2024-01-15T20:03:42.523Z,8.89
2024-01-15T20:06:14.222Z,8.83
2024-01-15T20:08:46.117Z,8.89
2024-01-15T20:11:14.151Z,8.67
2024-01-15T20:13:43.047Z,8.93
2024-01-15T20:16:13.601Z,8.94
2024-01-15T20:18:42.566Z,8.71
2024-01-15T20:21:09.908Z,8.68
2024-01-15T20:23:46.628Z,8.59
2024-01-15T20:26:22.251Z,8.49
2024-01-15T20:28:49.657Z,8.72
2024-01-15T20:31:17.580Z,8.06
2024-01-15T20:33:44.755Z,7.14
2024-01-15T20:36:14.417Z,7.56
2024-01-15T20:38:41.761Z,8.02
2024-01-15T20:41:09.049Z,8.39
2024-01-15T20:43:36.524Z,8.83
2024-01-15T20:46:03.974Z,9.03
2024-01-15T20:48:32.581Z,9.22
2024-01-15T20:50:59.800Z,9.25
2024-01-15T20:53:27.135Z,9.76
2024-01-15T20:55:54.385Z,10.02
2024-01-15T20:58:27.514Z,10.07
2024-01-15T21:00:55.832Z,10.34
2024-01-15T21:03:23.927Z,10.37
2024-01-15T21:05:51.364Z,10.45
2024-01-15T21:08:18.843Z,10.12
2024-01-15T21:10:46.037Z,9.86
2024-01-15T21:13:13.279Z,9.61
2024-01-15T21:15:40.477Z,9.61
2024-01-15T21:18:07.855Z,9.83
2024-01-15T21:20:35.084Z,10.28
2024-01-15T21:23:03.569Z,10.53
2024-01-15T21:25:31.739Z,10.45
2024-01-15T21:27:58.903Z,10.26
2024-01-15T21:30:26.483Z,10.48
2024-01-15T21:32:53.812Z,10.52
2024-01-15T21:35:21.190Z,10.45
2024-01-15T21:37:48.384Z,10.24
2024-01-15T21:40:16.943Z,10.38
2024-01-15T21:42:44.979Z,10.13
2024-01-15T21:45:12.222Z,10.03
2024-01-15T21:47:39.622Z,10.13
2024-01-15T21:50:10.113Z,10.00
2024-01-15T21:52:37.806Z,10.05
2024-01-15T21:55:07.074Z,10.14
2024-01-15T21:57:34.476Z,10.48
2024-01-15T22:00:05.559Z,10.48
2024-01-15T22:02:41.511Z,10.05
2024-01-15T22:05:10.387Z,10.02
2024-01-15T22:07:41.448Z,10.37
2024-01-15T22:10:09.401Z,10.01
2024-01-15T22:12:36.706Z,9.78
2024-01-15T22:15:04.246Z,9.86
2024-01-15T22:17:31.457Z,9.82
2024-01-15T22:19:58.789Z,10.20
2024-01-15T22:22:25.962Z,10.32
2024-01-15T22:24:53.111Z,10.25
2024-01-15T22:27:20.292Z,10.15
2024-01-15T22:29:51.908Z,10.06
2024-01-15T22:32:19.427Z,9.98
2024-01-15T22:34:46.800Z,10.12
2024-01-15T22:37:15.142Z,10.15
2024-01-15T22:39:42.339Z,9.61
2024-01-15T22:42:10.203Z,8.99
2024-01-15T22:44:37.548Z,8.72
2024-01-15T22:47:05.017Z,8.63
2024-01-15T22:49:32.324Z,8.33
2024-01-15T22:51:59.479Z,8.49
2024-01-15T22:54:27.072Z,9.09
2024-01-15T22:56:54.225Z,9.42
2024-01-15T22:59:23.395Z,9.00
2024-01-15T23:01:50.944Z,9.29
2024-01-15T23:04:19.039Z,9.55
2024-01-15T23:06:46.430Z,9.61
2024-01-15T23:09:13.594Z,9.43
2024-01-15T23:11:40.906Z,9.69
2024-01-15T23:14:08.193Z,9.71
2024-01-15T23:16:35.414Z,9.58
2024-01-15T23:19:02.603Z,9.76
2024-01-15T23:21:29.773Z,9.99
2024-01-15T23:23:56.918Z,9.72
2024-01-15T23:26:24.100Z,9.89
2024-01-15T23:28:51.331Z,9.36
2024-01-15T23:31:18.583Z,9.42
2024-01-15T23:33:45.769Z,9.80
2024-01-15T23:36:13.108Z,9.81
2024-01-15T23:38:40.528Z,9.71
2024-01-15T23:41:10.966Z,9.83
2024-01-15T23:43:39.809Z,10.13
2024-01-15T23:46:14.247Z,10.15
2024-01-15T23:48:42.734Z,9.70
2024-01-15T23:51:10.197Z,9.68
2024-01-15T23:53:37.426Z,9.72
2024-01-15T23:56:05.308Z,9.71
2024-01-15T23:58:32.528Z,9.52
